createdAt,value
2023-03-17T00:00:35.080Z,61.80
2023-03-17T00:03:08.190Z,62.60
2023-03-17T00:05:41.292Z,53.40
2023-03-17T00:08:23.826Z,67.80
2023-03-17T00:10:57.052Z,62.60
2023-03-17T00:13:30.943Z,64.10
2023-03-17T00:16:05.065Z,61.70
2023-03-17T00:18:41.495Z,66.30
2023-03-17T00:21:16.740Z,66.60
2023-03-17T00:23:52.329Z,63.60
2023-03-17T00:26:25.140Z,74.20
2023-03-17T00:28:59.159Z,71.00
2023-03-17T00:31:32.918Z,76.90
2023-03-17T00:34:13.991Z,77.10
2023-03-17T00:36:47.235Z,69.80
2023-03-17T00:39:20.938Z,73.50
2023-03-17T00:41:53.669Z,74.40
2023-03-17T00:44:27.043Z,67.70
2023-03-17T00:47:03.649Z,75.80
2023-03-17T00:49:36.482Z,73.80
2023-03-17T00:52:16.273Z,75.90
2023-03-17T00:54:49.729Z,64.90
2023-03-17T00:57:23.117Z,76.00
2023-03-17T00:59:57.800Z,68.00
2023-03-17T01:02:31.241Z,61.30
2023-03-17T01:05:07.419Z,68.40
2023-03-17T01:07:41.021Z,79.50
2023-03-17T01:10:18.782Z,73.20
2023-03-17T01:12:51.711Z,72.90
2023-03-17T01:15:25.772Z,60.20
2023-03-17T01:17:58.784Z,63.50
2023-03-17T01:20:32.994Z,65.60
2023-03-17T01:23:05.965Z,70.40
2023-03-17T01:25:39.980Z,63.90
2023-03-17T01:28:13.351Z,61.20
2023-03-17T01:30:47.259Z,60.40
2023-03-17T01:33:20.951Z,58.50
2023-03-17T01:35:54.063Z,61.30
2023-03-17T01:38:26.807Z,66.80
2023-03-17T01:40:59.780Z,53.60
2023-03-17T01:43:33.119Z,54.90
2023-03-17T01:46:22.181Z,56.30
2023-03-17T01:49:00.355Z,51.90
2023-03-17T01:51:35.110Z,57.20
2023-03-17T01:54:10.835Z,49.30
2023-03-17T01:56:45.517Z,54.70
2023-03-17T01:59:22.809Z,43.40
2023-03-17T02:01:58.975Z,41.10
2023-03-17T02:04:31.775Z,55.10
2023-03-17T02:07:05.956Z,45.90
2023-03-17T02:09:39.085Z,44.80
2023-03-17T02:12:14.043Z,50.50
2023-03-17T02:14:47.012Z,45.00
2023-03-17T02:17:22.426Z,50.20
2023-03-17T02:19:55.683Z,46.40
2023-03-17T02:22:29.097Z,50.10
2023-03-17T02:25:04.902Z,46.90
2023-03-17T02:27:42.880Z,48.20
2023-03-17T02:30:19.344Z,54.00
2023-03-17T02:32:52.995Z,47.40
2023-03-17T02:35:31.774Z,59.10
2023-03-17T02:38:05.750Z,52.00
2023-03-17T02:40:38.772Z,56.40
2023-03-17T02:43:12.040Z,54.30
2023-03-17T02:45:44.681Z,48.90
2023-03-17T02:48:18.239Z,58.80
2023-03-17T02:50:52.041Z,53.40
2023-03-17T02:53:29.556Z,50.10
2023-03-17T02:56:02.624Z,46.90
2023-03-17T02:58:35.941Z,56.70
2023-03-17T03:01:09.956Z,54.40
2023-03-17T03:03:43.267Z,53.40
2023-03-17T03:06:16.756Z,61.50
2023-03-17T03:08:49.996Z,58.20
2023-03-17T03:11:22.789Z,48.10
2023-03-17T03:13:56.475Z,56.00
2023-03-17T03:16:29.362Z,53.10
2023-03-17T03:19:02.886Z,53.40
2023-03-17T03:21:36.984Z,53.00
2023-03-17T03:24:11.162Z,50.80
2023-03-17T03:26:45.234Z,54.00
2023-03-17T03:29:18.312Z,54.20
2023-03-17T03:31:51.512Z,52.30
2023-03-17T03:34:24.569Z,64.70
2023-03-17T03:36:57.754Z,48.40
2023-03-17T03:39:31.235Z,53.40
2023-03-17T03:42:04.115Z,46.00
2023-03-17T03:44:37.872Z,46.10
2023-03-17T03:47:12.546Z,50.70
2023-03-17T03:49:50.479Z,47.10
2023-03-17T03:52:23.767Z,48.70
2023-03-17T03:54:56.859Z,46.20
2023-03-17T03:57:29.833Z,46.90
2023-03-17T04:00:02.622Z,49.60
2023-03-17T04:02:45.490Z,54.40
2023-03-17T04:05:19.037Z,53.70
2023-03-17T04:07:51.928Z,51.50
2023-03-17T04:10:25.058Z,53.90
2023-03-17T04:12:58.478Z,50.40
2023-03-17T04:15:38.803Z,57.40
2023-03-17T04:18:11.780Z,58.40
2023-03-17T04:20:44.433Z,58.80
2023-03-17T04:23:18.223Z,52.20
2023-03-17T04:25:53.564Z,57.40
2023-03-17T04:28:31.691Z,51.40
2023-03-17T04:31:04.758Z,61.20
2023-03-17T04:33:37.863Z,64.20
2023-03-17T04:36:14.246Z,61.70
2023-03-17T04:38:47.792Z,55.80
2023-03-17T04:41:21.551Z,64.30
2023-03-17T04:43:54.699Z,63.10
2023-03-17T04:46:31.197Z,67.20
2023-03-17T04:49:04.369Z,63.90
2023-03-17T04:51:38.078Z,54.40
2023-03-17T04:54:11.476Z,54.60
2023-03-17T04:56:44.796Z,64.70
2023-03-17T04:59:17.915Z,54.60
2023-03-17T05:01:51.111Z,72.60
2023-03-17T05:04:31.621Z,55.90
2023-03-17T05:07:05.373Z,53.00
2023-03-17T05:09:38.710Z,53.80
2023-03-17T05:12:14.591Z,53.40
2023-03-17T05:14:48.145Z,51.60
2023-03-17T05:17:20.967Z,55.60
2023-03-17T05:19:53.911Z,51.50
2023-03-17T05:22:27.423Z,53.90
2023-03-17T05:25:00.393Z,52.70
2023-03-17T05:27:33.970Z,58.10
2023-03-17T05:30:08.748Z,53.90
2023-03-17T05:32:42.217Z,51.20
2023-03-17T05:35:15.294Z,54.70
2023-03-17T05:37:48.984Z,54.80
2023-03-17T05:40:23.800Z,54.70
2023-03-17T05:42:57.205Z,54.30
2023-03-17T05:45:30.955Z,57.20
2023-03-17T05:48:10.289Z,60.90
2023-03-17T05:50:43.901Z,54.20
2023-03-17T05:53:17.648Z,58.30
2023-03-17T05:55:50.887Z,52.50
2023-03-17T05:58:24.148Z,62.20
2023-03-17T06:01:00.672Z,56.20
2023-03-17T06:03:35.223Z,56.00
2023-03-17T06:06:09.930Z,59.00
2023-03-17T06:08:42.987Z,56.90
2023-03-17T06:11:15.948Z,57.30
2023-03-17T06:13:54.901Z,56.70
2023-03-17T06:16:30.963Z,56.50
2023-03-17T06:19:03.915Z,57.80
2023-03-17T06:21:37.150Z,61.00
2023-03-17T06:24:10.943Z,57.20
2023-03-17T06:26:43.907Z,55.40
2023-03-17T06:29:16.888Z,58.70
2023-03-17T06:31:51.344Z,54.40
2023-03-17T06:34:27.768Z,51.30
2023-03-17T06:37:01.001Z,49.40
2023-03-17T06:39:34.030Z,50.00
2023-03-17T06:42:08.552Z,57.60
2023-03-17T06:44:41.964Z,50.80
2023-03-17T06:47:15.767Z,41.60
2023-03-17T06:49:48.934Z,43.10
2023-03-17T06:52:23.560Z,35.80
2023-03-17T06:54:56.389Z,39.30
2023-03-17T06:57:29.942Z,38.00
2023-03-17T07:00:02.509Z,39.90
2023-03-17T07:02:35.699Z,39.00
2023-03-17T07:05:11.049Z,36.40
2023-03-17T07:07:44.087Z,33.40
2023-03-17T07:10:17.603Z,32.40
2023-03-17T07:12:53.105Z,31.00
2023-03-17T07:15:26.881Z,30.30
2023-03-17T07:17:59.888Z,32.10
2023-03-17T07:20:36.523Z,33.80
2023-03-17T07:23:10.391Z,34.90
2023-03-17T07:25:47.393Z,32.50
2023-03-17T07:28:27.324Z,41.10
2023-03-17T07:31:03.164Z,38.40
2023-03-17T07:33:36.624Z,31.80
2023-03-17T07:36:11.263Z,43.40
2023-03-17T07:38:46.915Z,30.60
2023-03-17T07:41:20.662Z,34.20
2023-03-17T07:43:54.125Z,53.80
2023-03-17T07:46:27.992Z,49.00
2023-03-17T07:49:08.067Z,60.20
2023-03-17T07:51:43.730Z,46.50
2023-03-17T07:54:18.351Z,47.00
2023-03-17T07:56:51.540Z,53.60
2023-03-17T07:59:24.625Z,56.10
2023-03-17T08:01:58.390Z,45.10
2023-03-17T08:04:31.569Z,62.70
2023-03-17T08:07:06.667Z,49.60
2023-03-17T08:09:40.342Z,45.10
2023-03-17T08:12:14.822Z,51.40
2023-03-17T08:14:51.407Z,52.60
2023-03-17T08:17:27.430Z,46.50
2023-03-17T08:20:00.882Z,41.80
2023-03-17T08:22:39.172Z,44.30
2023-03-17T08:25:13.025Z,50.90
2023-03-17T08:27:45.943Z,38.20
2023-03-17T08:30:21.104Z,42.40
2023-03-17T08:32:54.946Z,44.00
2023-03-17T08:35:33.699Z,47.90
2023-03-17T08:38:07.055Z,44.20
2023-03-17T08:40:40.380Z,46.90
2023-03-17T08:43:13.819Z,53.50
2023-03-17T08:45:47.260Z,49.50
2023-03-17T08:48:22.188Z,49.90
2023-03-17T08:50:55.915Z,45.30
2023-03-17T08:53:29.515Z,38.20
2023-03-17T08:56:02.655Z,40.70
2023-03-17T08:58:35.678Z,39.30
2023-03-17T09:01:11.010Z,41.70
2023-03-17T09:03:44.079Z,43.10
2023-03-17T09:06:21.615Z,51.00
2023-03-17T09:08:55.816Z,53.50
2023-03-17T09:11:29.818Z,48.80
2023-03-17T09:14:04.818Z,43.80
2023-03-17T09:16:37.881Z,49.20
2023-03-17T09:19:10.710Z,47.80
2023-03-17T09:21:44.342Z,51.00
2023-03-17T09:24:17.137Z,68.30
2023-03-17T09:27:00.396Z,51.80
2023-03-17T09:29:34.443Z,52.90
2023-03-17T09:32:08.989Z,50.00
2023-03-17T09:34:43.654Z,63.50
2023-03-17T09:37:17.095Z,51.80
2023-03-17T09:39:58.241Z,51.10
2023-03-17T09:42:39.829Z,41.80
2023-03-17T09:45:23.514Z,59.10
2023-03-17T09:48:01.736Z,52.50
2023-03-17T09:50:36.732Z,41.70
2023-03-17T09:53:11.655Z,55.30
2023-03-17T09:55:44.250Z,52.10
2023-03-17T09:58:30.070Z,59.70
2023-03-17T10:01:03.327Z,55.40
2023-03-17T10:03:37.683Z,64.50
2023-03-17T10:06:29.585Z,55.10
2023-03-17T10:09:04.737Z,56.80
2023-03-17T10:11:42.358Z,54.20
2023-03-17T10:14:23.762Z,51.10
2023-03-17T10:16:59.627Z,65.20
2023-03-17T10:19:34.338Z,54.20
2023-03-17T10:22:08.630Z,56.20
2023-03-17T10:24:42.939Z,54.20
2023-03-17T10:27:15.832Z,48.50
2023-03-17T10:29:51.974Z,54.60
2023-03-17T10:32:24.826Z,50.00
2023-03-17T10:34:58.636Z,47.70
2023-03-17T10:37:36.938Z,52.10
2023-03-17T10:40:21.884Z,53.00
2023-03-17T10:42:57.107Z,39.20
2023-03-17T10:45:34.033Z,52.10
2023-03-17T10:48:10.045Z,48.70
2023-03-17T10:50:42.808Z,50.70
2023-03-17T10:53:28.523Z,48.00
2023-03-17T10:56:08.485Z,46.80
2023-03-17T10:58:45.039Z,48.40
2023-03-17T11:01:22.339Z,53.30
2023-03-17T11:03:56.055Z,56.00
2023-03-17T11:06:36.783Z,47.50
2023-03-17T11:09:12.722Z,49.80
2023-03-17T11:11:49.771Z,46.30
2023-03-17T11:14:22.588Z,49.10
2023-03-17T11:16:57.964Z,41.40
2023-03-17T11:19:36.545Z,45.40
2023-03-17T11:22:12.438Z,49.10
2023-03-17T11:24:52.877Z,46.60
2023-03-17T11:27:32.940Z,53.60
2023-03-17T11:30:18.948Z,47.20
2023-03-17T11:32:57.081Z,41.60
2023-03-17T11:35:50.722Z,46.20
2023-03-17T11:38:28.582Z,47.40
2023-03-17T11:41:27.386Z,56.60
2023-03-17T11:44:18.734Z,45.90
2023-03-17T11:46:53.437Z,49.80
2023-03-17T11:49:28.953Z,51.60
2023-03-17T11:52:16.575Z,50.20
2023-03-17T11:54:50.850Z,52.30
2023-03-17T11:57:25.828Z,52.70
2023-03-17T12:00:01.625Z,47.60
2023-03-17T12:02:40.191Z,52.10
2023-03-17T12:05:15.864Z,55.40
2023-03-17T12:07:49.905Z,52.50
2023-03-17T12:10:24.670Z,47.20
2023-03-17T12:12:59.710Z,41.10
2023-03-17T12:15:39.493Z,43.60
2023-03-17T12:18:16.780Z,39.10
2023-03-17T12:20:54.537Z,38.30
2023-03-17T12:23:30.721Z,37.80
2023-03-17T12:26:07.646Z,46.70
2023-03-17T12:28:42.822Z,49.70
2023-03-17T12:31:18.652Z,47.20
2023-03-17T12:33:54.093Z,36.80
2023-03-17T12:36:27.306Z,41.80
2023-03-17T12:39:05.733Z,37.00
2023-03-17T12:42:07.751Z,32.00
2023-03-17T12:44:47.787Z,28.90
2023-03-17T12:47:36.941Z,30.40
2023-03-17T12:50:39.585Z,28.70
2023-03-17T12:53:28.313Z,27.20
2023-03-17T12:56:02.819Z,25.80
2023-03-17T12:58:39.053Z,24.70
2023-03-17T13:01:18.985Z,26.90
2023-03-17T13:04:02.847Z,24.30
2023-03-17T13:06:40.915Z,26.00
2023-03-17T13:09:39.767Z,28.90
2023-03-17T13:13:06.803Z,24.70
2023-03-17T13:16:04.674Z,25.90
2023-03-17T13:18:54.306Z,25.80
2023-03-17T13:24:40.461Z,25.90
2023-03-17T13:27:45.344Z,32.60
2023-03-17T13:30:53.121Z,34.00
2023-03-17T13:33:30.916Z,36.20
2023-03-17T13:36:20.819Z,35.00
2023-03-17T13:39:33.568Z,38.10
2023-03-17T13:42:17.885Z,41.30
2023-03-17T13:45:20.244Z,40.40
2023-03-17T13:47:56.260Z,39.10
2023-03-17T13:50:34.425Z,33.50
2023-03-17T13:53:12.122Z,35.80
2023-03-17T13:55:46.321Z,33.30
2023-03-17T13:58:36.941Z,40.10
2023-03-17T14:01:10.621Z,43.90
2023-03-17T14:03:45.509Z,38.30
2023-03-17T14:06:18.989Z,37.80
2023-03-17T14:08:53.881Z,35.60
2023-03-17T14:11:33.405Z,36.30
2023-03-17T14:14:31.506Z,38.20
2023-03-17T14:17:13.464Z,37.10
2023-03-17T14:20:00.031Z,30.90
2023-03-17T14:22:33.074Z,31.20
2023-03-17T14:25:15.120Z,33.40
2023-03-17T14:27:49.717Z,31.50
2023-03-17T14:30:24.310Z,31.70
2023-03-17T14:33:03.456Z,29.60
2023-03-17T14:35:39.397Z,31.90
2023-03-17T14:38:20.131Z,27.50
2023-03-17T14:41:03.141Z,25.90
2023-03-17T14:43:37.383Z,30.80
2023-03-17T14:46:14.267Z,30.20
2023-03-17T14:48:50.426Z,31.70
2023-03-17T14:51:28.061Z,32.50
2023-03-17T14:54:03.830Z,32.40
2023-03-17T14:56:39.572Z,31.90
2023-03-17T14:59:20.441Z,24.10
2023-03-17T15:01:56.701Z,25.40
2023-03-17T15:04:30.776Z,25.70
2023-03-17T15:07:04.671Z,26.10
2023-03-17T15:09:41.334Z,26.30
2023-03-17T15:12:19.583Z,25.20
2023-03-17T15:14:53.089Z,26.20
2023-03-17T15:17:27.890Z,28.50
2023-03-17T15:20:05.966Z,31.30
2023-03-17T15:22:44.914Z,26.40
2023-03-17T15:25:29.039Z,28.10
2023-03-17T15:28:02.206Z,30.00
2023-03-17T15:30:46.532Z,26.30
2023-03-17T15:33:23.925Z,29.40
2023-03-17T15:36:02.030Z,27.30
2023-03-17T15:38:39.133Z,29.20
2023-03-17T15:41:14.871Z,24.00
2023-03-17T15:43:49.864Z,31.80
2023-03-17T15:46:27.747Z,32.60
2023-03-17T15:49:07.146Z,30.90
2023-03-17T15:51:40.307Z,36.10
2023-03-17T15:54:17.945Z,36.40
2023-03-17T15:56:52.047Z,37.10
2023-03-17T15:59:24.853Z,39.10
2023-03-17T16:01:58.844Z,36.30
2023-03-17T16:04:31.649Z,40.50
2023-03-17T16:07:10.883Z,39.30
2023-03-17T16:09:44.870Z,42.60
2023-03-17T16:12:17.945Z,38.70
2023-03-17T16:14:55.353Z,37.10
2023-03-17T16:17:32.505Z,40.80
2023-03-17T16:20:06.681Z,43.20
2023-03-17T16:22:43.426Z,48.20
2023-03-17T16:25:25.058Z,46.30
2023-03-17T16:28:03.197Z,41.60
2023-03-17T16:30:37.132Z,46.40
2023-03-17T16:33:16.401Z,44.80
2023-03-17T16:35:52.591Z,44.60
2023-03-17T16:38:27.983Z,45.70
2023-03-17T16:41:07.387Z,56.70
2023-03-17T16:43:40.945Z,49.90
2023-03-17T16:46:13.960Z,51.60
2023-03-17T16:48:48.561Z,54.80
2023-03-17T16:51:21.376Z,49.30
2023-03-17T16:53:55.196Z,52.20
2023-03-17T16:56:29.026Z,63.80
2023-03-17T16:59:03.115Z,51.20
2023-03-17T17:01:36.883Z,51.50
2023-03-17T17:04:13.475Z,51.40
2023-03-17T17:06:47.264Z,55.50
2023-03-17T17:09:20.518Z,59.90
2023-03-17T17:11:53.293Z,45.70
2023-03-17T17:14:28.049Z,55.20
2023-03-17T17:17:01.132Z,58.40
2023-03-17T17:19:34.328Z,49.20
2023-03-17T17:22:07.737Z,50.40
2023-03-17T17:24:41.226Z,50.50
2023-03-17T17:27:15.814Z,56.10
2023-03-17T17:29:49.071Z,61.50
2023-03-17T17:32:23.810Z,52.10
2023-03-17T17:34:57.782Z,52.70
2023-03-17T17:37:31.457Z,49.60
2023-03-17T17:40:10.335Z,50.50
2023-03-17T17:42:46.432Z,46.50
2023-03-17T17:45:22.063Z,44.00
2023-03-17T17:47:55.268Z,42.40
2023-03-17T17:50:29.570Z,43.80
2023-03-17T17:53:05.854Z,42.60
2023-03-17T17:55:39.155Z,40.70
2023-03-17T17:58:12.222Z,37.30
2023-03-17T18:00:45.507Z,39.70
2023-03-17T18:03:23.211Z,34.20
2023-03-17T18:05:56.612Z,40.60
2023-03-17T18:08:30.410Z,40.30
2023-03-17T18:11:04.370Z,37.80
2023-03-17T18:13:42.188Z,41.60
2023-03-17T18:16:16.651Z,35.60
2023-03-17T18:18:50.184Z,43.10
2023-03-17T18:21:23.549Z,52.50
2023-03-17T18:23:57.413Z,36.50
2023-03-17T18:26:30.933Z,50.70
2023-03-17T18:29:04.069Z,40.90
2023-03-17T18:31:42.262Z,38.30
2023-03-17T18:34:17.939Z,54.40
2023-03-17T18:36:57.275Z,39.30
2023-03-17T18:39:31.396Z,39.00
2023-03-17T18:42:04.564Z,46.40
2023-03-17T18:44:37.176Z,40.10
2023-03-17T18:47:16.614Z,40.00
2023-03-17T18:49:51.730Z,47.30
2023-03-17T18:52:25.124Z,49.50
2023-03-17T18:54:58.297Z,52.20
2023-03-17T18:57:31.390Z,56.50
2023-03-17T19:00:05.399Z,60.60
2023-03-17T19:02:44.110Z,61.10
2023-03-17T19:05:16.905Z,69.50
2023-03-17T19:08:03.490Z,61.20
2023-03-17T19:10:36.506Z,66.10
2023-03-17T19:13:10.345Z,58.30
2023-03-17T19:15:43.348Z,72.90
2023-03-17T19:18:18.523Z,66.90
2023-03-17T19:20:51.511Z,62.00
2023-03-17T19:23:32.886Z,74.70
2023-03-17T19:26:06.264Z,73.60
2023-03-17T19:28:39.075Z,84.00
2023-03-17T19:31:12.166Z,60.40
2023-03-17T19:33:44.918Z,71.70
2023-03-17T19:36:20.519Z,79.00
2023-03-17T19:38:57.183Z,78.60
2023-03-17T19:41:34.371Z,84.90
2023-03-17T19:44:07.091Z,86.40
2023-03-17T19:46:40.037Z,80.00
2023-03-17T19:49:14.178Z,98.90
2023-03-17T19:51:47.440Z,91.20
2023-03-17T19:54:23.506Z,74.60
2023-03-17T19:56:59.917Z,108.70
2023-03-17T19:59:37.663Z,79.40
2023-03-17T20:02:12.048Z,70.80
2023-03-17T20:04:44.901Z,91.60
2023-03-17T20:07:19.816Z,73.50
2023-03-17T20:09:54.377Z,91.00
2023-03-17T20:12:28.379Z,84.70
2023-03-17T20:15:01.777Z,92.30
2023-03-17T20:17:35.484Z,84.70
2023-03-17T20:20:18.555Z,106.00
2023-03-17T20:22:52.114Z,93.10
2023-03-17T20:25:24.981Z,91.60
2023-03-17T20:28:04.573Z,87.40
2023-03-17T20:30:37.292Z,79.40
2023-03-17T20:33:13.733Z,92.80
2023-03-17T20:35:48.232Z,87.20
2023-03-17T20:38:21.505Z,106.60
2023-03-17T20:40:54.313Z,104.60
2023-03-17T20:43:28.202Z,84.20
2023-03-17T20:46:01.721Z,78.60
2023-03-17T20:48:36.318Z,84.30
2023-03-17T20:51:15.853Z,97.80
2023-03-17T20:53:53.687Z,90.60
2023-03-17T20:56:28.593Z,88.30
2023-03-17T20:59:05.938Z,82.00
2023-03-17T21:01:40.812Z,101.90
2023-03-17T21:04:17.857Z,90.90
2023-03-17T21:06:50.785Z,69.50
2023-03-17T21:09:23.741Z,89.80
2023-03-17T21:11:56.859Z,83.50
2023-03-17T21:14:31.742Z,63.90
2023-03-17T21:17:05.349Z,78.20
2023-03-17T21:19:40.770Z,92.70
2023-03-17T21:22:13.804Z,77.00
2023-03-17T21:24:46.849Z,79.40
2023-03-17T21:27:19.582Z,69.40
2023-03-17T21:29:52.475Z,69.40
2023-03-17T21:32:25.301Z,60.60
2023-03-17T21:34:58.453Z,77.70
2023-03-17T21:37:31.415Z,48.70
2023-03-17T21:40:07.464Z,72.90
2023-03-17T21:42:41.081Z,59.70
2023-03-17T21:45:15.841Z,37.40
2023-03-17T21:47:48.792Z,39.20
2023-03-17T21:50:22.831Z,43.70
2023-03-17T21:52:55.596Z,31.50
2023-03-17T21:55:28.666Z,31.60
2023-03-17T21:58:03.929Z,33.80
2023-03-17T22:00:45.171Z,27.90
2023-03-17T22:03:18.888Z,31.30
2023-03-17T22:05:52.848Z,39.70
2023-03-17T22:08:25.788Z,24.70
2023-03-17T22:10:58.531Z,25.10
2023-03-17T22:13:31.729Z,29.30
2023-03-17T22:16:09.492Z,24.30
2023-03-17T22:18:42.236Z,21.00
2023-03-17T22:21:14.910Z,31.50
2023-03-17T22:23:50.622Z,26.30
2023-03-17T22:26:24.347Z,23.20
2023-03-17T22:29:03.005Z,23.70
2023-03-17T22:31:36.612Z,26.40
2023-03-17T22:34:10.301Z,25.10
2023-03-17T22:36:43.521Z,22.50
2023-03-17T22:39:16.522Z,22.50
2023-03-17T22:41:52.067Z,24.00
2023-03-17T22:44:25.855Z,21.20
2023-03-17T22:46:58.909Z,19.40
2023-03-17T22:49:32.417Z,28.70
2023-03-17T22:52:06.291Z,27.00
2023-03-17T22:54:41.993Z,28.10
2023-03-17T22:57:15.268Z,25.90
2023-03-17T22:59:52.628Z,26.20
2023-03-17T23:02:25.870Z,29.50
2023-03-17T23:04:59.037Z,27.70
2023-03-17T23:07:47.873Z,28.80
2023-03-17T23:10:24.830Z,25.00
2023-03-17T23:12:59.952Z,27.60
2023-03-17T23:15:34.645Z,30.00
2023-03-17T23:18:07.683Z,33.10
2023-03-17T23:20:41.011Z,28.60
2023-03-17T23:23:14.117Z,32.30
2023-03-17T23:25:47.720Z,31.30
2023-03-17T23:28:21.750Z,30.50
2023-03-17T23:30:54.702Z,31.60
2023-03-17T23:33:29.774Z,27.80
2023-03-17T23:36:02.704Z,27.80
2023-03-17T23:38:35.789Z,29.30
2023-03-17T23:41:08.926Z,26.00
2023-03-17T23:43:42.147Z,19.40
2023-03-17T23:46:15.310Z,19.20
2023-03-17T23:48:49.830Z,21.60
2023-03-17T23:51:24.372Z,19.10
2023-03-17T23:53:58.391Z,21.50
2023-03-17T23:56:33.826Z,20.30
2023-03-17T23:59:08.330Z,18.50
